Time;durP1;ratioP1;P1;durP2;ratioP2;P2;SDS_P1;SDS_P2;PMS_P1;PMS_P2;Temp;Humidity;BMP_temperature;BMP_pressure;BME280_temperature;BME280_humidity;BME280_pressure;Samples;Min_cycle;Max_cycle;Signal;HPM_P1;HPM_P2
2023/12/04 00:01:45;;;;;;;5.80;4.37;;;;;;;;;;5022451;28;20207;-86
2023/12/04 00:04:10;;;;;;;5.07;4.00;;;;;;;;;;5023115;28;20264;-86
2023/12/04 00:06:35;;;;;;;4.57;3.57;;;;;;;;;;5020859;28;20351;-86
2023/12/04 00:09:01;;;;;;;5.20;4.07;;;;;;;;;;5019265;28;20170;-86
2023/12/04 00:11:26;;;;;;;6.23;4.50;;;;;;;;;;5016860;28;20174;-86
2023/12/04 00:13:52;;;;;;;4.73;4.10;;;;;;;;;;5019815;28;20198;-86
2023/12/04 00:16:17;;;;;;;5.50;4.27;;;;;;;;;;5017064;28;20179;-86
2023/12/04 00:18:43;;;;;;;4.90;3.93;;;;;;;;;;5022060;28;20264;-86
2023/12/04 00:21:08;;;;;;;5.10;4.60;;;;;;;;;;5027056;28;20198;-86
2023/12/04 00:23:33;;;;;;;7.47;5.03;;;;;;;;;;5024761;28;20174;-86
2023/12/04 00:25:58;;;;;;;4.90;3.50;;;;;;;;;;5019836;28;20164;-86
2023/12/04 00:28:24;;;;;;;5.50;4.40;;;;;;;;;;5021103;28;20174;-86
2023/12/04 00:30:49;;;;;;;5.00;3.93;;;;;;;;;;5022166;28;20224;-86
2023/12/04 00:33:14;;;;;;;5.50;4.47;;;;;;;;;;5013940;28;20286;-86
2023/12/04 00:35:39;;;;;;;5.27;4.77;;;;;;;;;;5014931;28;20180;-86
2023/12/04 00:38:04;;;;;;;4.30;3.90;;;;;;;;;;5020643;28;20183;-86
2023/12/04 00:40:30;;;;;;;5.63;4.40;;;;;;;;;;5018198;28;20168;-86
2023/12/04 00:42:55;;;;;;;5.67;4.47;;;;;;;;;;5021400;28;20168;-86
2023/12/04 00:45:20;;;;;;;5.77;5.03;;;;;;;;;;5012260;28;20179;-86
2023/12/04 00:47:45;;;;;;;5.87;4.80;;;;;;;;;;5017659;28;20175;-86
2023/12/04 00:50:10;;;;;;;7.90;5.63;;;;;;;;;;5012562;28;20229;-86
2023/12/04 00:52:36;;;;;;;5.57;4.30;;;;;;;;;;5014676;28;20229;-86
2023/12/04 00:55:01;;;;;;;5.60;4.53;;;;;;;;;;5017732;28;20171;-86
2023/12/04 00:57:26;;;;;;;5.07;4.57;;;;;;;;;;5017463;28;20307;-86
2023/12/04 00:59:51;;;;;;;5.33;4.80;;;;;;;;;;5019677;28;20297;-85
2023/12/04 01:02:16;;;;;;;5.57;4.60;;;;;;;;;;5018113;28;20203;-86
2023/12/04 01:04:42;;;;;;;5.67;4.80;;;;;;;;;;5021723;28;20175;-86
2023/12/04 01:07:07;;;;;;;6.17;4.97;;;;;;;;;;5018210;28;20179;-86
2023/12/04 01:09:34;;;;;;;6.57;5.20;;;;;;;;;;5020912;28;20175;-86
2023/12/04 01:11:59;;;;;;;6.77;5.20;;;;;;;;;;5011942;28;20175;-86
2023/12/04 01:14:25;;;;;;;4.83;4.13;;;;;;;;;;5019176;28;20170;-86
2023/12/04 01:16:50;;;;;;;6.57;4.63;;;;;;;;;;5019492;28;20179;-86
2023/12/04 01:19:15;;;;;;;5.53;4.77;;;;;;;;;;5024302;28;20193;-86
2023/12/04 01:21:40;;;;;;;6.27;4.97;;;;;;;;;;5021523;28;20190;-86
2023/12/04 01:24:05;;;;;;;5.47;4.53;;;;;;;;;;5020658;28;20265;-86
2023/12/04 01:26:31;;;;;;;5.17;4.63;;;;;;;;;;5018762;28;20175;-86
2023/12/04 01:28:56;;;;;;;6.27;5.20;;;;;;;;;;5019301;28;20182;-86
2023/12/04 01:31:21;;;;;;;5.47;4.43;;;;;;;;;;5017541;28;20270;-86
2023/12/04 01:33:47;;;;;;;5.97;4.10;;;;;;;;;;5017217;28;20209;-86
2023/12/04 01:36:12;;;;;;;4.93;4.00;;;;;;;;;;5014130;28;20232;-86
2023/12/04 01:38:37;;;;;;;5.33;4.40;;;;;;;;;;5014759;28;20179;-86
2023/12/04 01:41:03;;;;;;;5.50;4.07;;;;;;;;;;5025005;28;20214;-86
2023/12/04 01:43:28;;;;;;;4.57;3.40;;;;;;;;;;5017579;28;20198;-86
2023/12/04 01:45:54;;;;;;;3.90;3.27;;;;;;;;;;5017684;28;20176;-86
2023/12/04 01:48:19;;;;;;;4.03;3.33;;;;;;;;;;5016751;28;20254;-86
2023/12/04 01:50:44;;;;;;;3.97;3.67;;;;;;;;;;5012183;28;20163;-86
2023/12/04 01:53:10;;;;;;;4.67;3.83;;;;;;;;;;5014741;28;20252;-86
2023/12/04 01:55:36;;;;;;;3.67;3.37;;;;;;;;;;5015594;28;20173;-86
2023/12/04 01:58:02;;;;;;;3.50;3.20;;;;;;;;;;5020201;28;20215;-86
2023/12/04 02:00:28;;;;;;;4.13;3.23;;;;;;;;;;5011520;28;20274;-86
2023/12/04 02:02:53;;;;;;;4.27;3.20;;;;;;;;;;5011262;28;20266;-86
2023/12/04 02:05:19;;;;;;;3.93;3.20;;;;;;;;;;5013601;28;20179;-86
2023/12/04 02:07:44;;;;;;;3.87;3.43;;;;;;;;;;5019515;28;20190;-86
2023/12/04 02:10:10;;;;;;;3.67;3.37;;;;;;;;;;5012063;28;20179;-86
2023/12/04 02:12:35;;;;;;;3.67;3.17;;;;;;;;;;5013751;28;20171;-86
2023/12/04 02:15:01;;;;;;;3.37;3.03;;;;;;;;;;5016483;28;20171;-86
2023/12/04 02:17:26;;;;;;;3.77;3.23;;;;;;;;;;5024692;28;20172;-86
2023/12/04 02:19:52;;;;;;;4.53;3.63;;;;;;;;;;5020814;28;20177;-86
2023/12/04 02:22:18;;;;;;;5.07;3.40;;;;;;;;;;5013867;28;20203;-86
2023/12/04 02:24:44;;;;;;;4.30;3.70;;;;;;;;;;5016576;28;20175;-86
2023/12/04 02:27:15;;;;;;;4.03;3.43;;;;;;;;;;5019394;28;20182;-87
2023/12/04 02:30:00;;;;;;;4.50;3.53;;;;;;;;;;5013261;28;20167;-86
2023/12/04 02:32:30;;;;;;;5.57;3.20;;;;;;;;;;5016375;28;20289;-86
2023/12/04 02:34:56;;;;;;;3.30;3.00;;;;;;;;;;5015616;28;20179;-86
2023/12/04 02:37:22;;;;;;;3.63;3.10;;;;;;;;;;5010778;28;20190;-86
2023/12/04 02:39:49;;;;;;;3.57;2.77;;;;;;;;;;5016555;28;20187;-86
2023/12/04 02:42:14;;;;;;;4.17;3.00;;;;;;;;;;5016959;28;20180;-86
2023/12/04 02:44:39;;;;;;;3.10;2.80;;;;;;;;;;5020301;28;20178;-86
2023/12/04 02:47:05;;;;;;;2.93;2.60;;;;;;;;;;5009655;28;20239;-86
2023/12/04 02:49:30;;;;;;;3.80;3.00;;;;;;;;;;5017730;28;20177;-86
2023/12/04 02:51:57;;;;;;;4.00;3.10;;;;;;;;;;5010554;28;20171;-86
2023/12/04 02:54:22;;;;;;;3.40;3.10;;;;;;;;;;5014121;28;20179;-86
2023/12/04 02:56:47;;;;;;;3.93;2.97;;;;;;;;;;5015746;28;20448;-87
2023/12/04 02:59:12;;;;;;;4.17;3.20;;;;;;;;;;5016792;28;20175;-86
2023/12/04 03:01:38;;;;;;;3.53;2.97;;;;;;;;;;5016254;28;20210;-85
2023/12/04 03:04:03;;;;;;;3.20;2.60;;;;;;;;;;5019460;28;20187;-86
2023/12/04 03:06:28;;;;;;;2.60;2.40;;;;;;;;;;5022243;28;20510;-86
2023/12/04 03:08:53;;;;;;;4.07;3.10;;;;;;;;;;5017001;28;20367;-86
2023/12/04 03:11:19;;;;;;;3.00;2.40;;;;;;;;;;5019351;28;20186;-86
2023/12/04 03:13:44;;;;;;;3.40;2.87;;;;;;;;;;5023332;28;20320;-86
2023/12/04 03:16:16;;;;;;;3.57;3.00;;;;;;;;;;5020976;28;20183;-86
2023/12/04 03:18:42;;;;;;;3.93;2.80;;;;;;;;;;5021029;28;20244;-86
2023/12/04 03:21:07;;;;;;;3.27;2.67;;;;;;;;;;5023405;28;20198;-86
2023/12/04 03:23:32;;;;;;;3.20;2.67;;;;;;;;;;5023035;28;20175;-86
2023/12/04 03:25:57;;;;;;;4.00;3.60;;;;;;;;;;5019023;28;20183;-86
2023/12/04 03:28:22;;;;;;;3.33;3.03;;;;;;;;;;5021296;28;20179;-87
2023/12/04 03:30:48;;;;;;;4.50;2.80;;;;;;;;;;5020330;28;20179;-86
2023/12/04 03:33:13;;;;;;;3.00;2.73;;;;;;;;;;5023197;28;20198;-86
2023/12/04 03:35:38;;;;;;;3.00;2.70;;;;;;;;;;5016638;28;20198;-86
2023/12/04 03:38:03;;;;;;;5.47;2.93;;;;;;;;;;5018375;28;20178;-86
2023/12/04 03:40:29;;;;;;;3.73;2.93;;;;;;;;;;5015114;28;20567;-86
2023/12/04 03:42:54;;;;;;;4.83;3.20;;;;;;;;;;5019949;28;20245;-86
2023/12/04 03:45:19;;;;;;;4.03;3.30;;;;;;;;;;5019276;28;20187;-86
2023/12/04 03:47:44;;;;;;;3.03;2.50;;;;;;;;;;5019964;28;20266;-86
2023/12/04 03:50:09;;;;;;;3.87;2.80;;;;;;;;;;5020849;28;20172;-86
2023/12/04 03:52:35;;;;;;;3.27;2.77;;;;;;;;;;5026392;28;20185;-86
2023/12/04 03:55:00;;;;;;;3.20;2.90;;;;;;;;;;5020752;28;20185;-86
2023/12/04 03:57:25;;;;;;;3.53;2.80;;;;;;;;;;5022424;28;20230;-86
2023/12/04 03:59:50;;;;;;;3.60;3.20;;;;;;;;;;5016454;28;20213;-86
2023/12/04 04:02:15;;;;;;;3.43;2.83;;;;;;;;;;5020115;28;20201;-86
2023/12/04 04:04:41;;;;;;;4.43;3.10;;;;;;;;;;5021657;28;20438;-86
2023/12/04 04:07:06;;;;;;;5.07;2.40;;;;;;;;;;5015122;28;20175;-87
2023/12/04 04:09:31;;;;;;;3.53;2.47;;;;;;;;;;5017303;28;20178;-86
2023/12/04 04:11:56;;;;;;;3.27;2.67;;;;;;;;;;5018197;28;20201;-86
2023/12/04 04:14:23;;;;;;;4.17;2.90;;;;;;;;;;5014124;28;20187;-86
2023/12/04 04:16:48;;;;;;;4.27;3.30;;;;;;;;;;5014971;28;20282;-86
2023/12/04 04:19:13;;;;;;;3.13;2.83;;;;;;;;;;5019708;28;20261;-86
2023/12/04 04:21:39;;;;;;;3.77;3.20;;;;;;;;;;5015374;28;20234;-86
2023/12/04 04:24:04;;;;;;;3.47;2.77;;;;;;;;;;5013619;28;20249;-86
2023/12/04 04:26:30;;;;;;;3.43;3.10;;;;;;;;;;5019270;28;20171;-87
2023/12/04 04:28:55;;;;;;;3.30;2.90;;;;;;;;;;5010576;28;20171;-86
2023/12/04 04:31:20;;;;;;;4.20;3.40;;;;;;;;;;5012830;28;20190;-86
2023/12/04 04:33:45;;;;;;;4.33;3.10;;;;;;;;;;5019687;28;20186;-87
2023/12/04 04:36:11;;;;;;;3.43;3.13;;;;;;;;;;5017923;28;20201;-86
2023/12/04 04:38:38;;;;;;;4.37;3.10;;;;;;;;;;5012720;28;20217;-86
2023/12/04 04:41:03;;;;;;;3.57;3.07;;;;;;;;;;5016834;28;20337;-87
2023/12/04 04:43:29;;;;;;;4.03;3.00;;;;;;;;;;5032278;28;20257;-86
2023/12/04 04:45:54;;;;;;;3.93;3.23;;;;;;;;;;5024105;28;20160;-86
2023/12/04 04:48:19;;;;;;;3.97;3.20;;;;;;;;;;5016407;28;20175;-86
2023/12/04 04:50:45;;;;;;;2.90;2.50;;;;;;;;;;5021956;28;20179;-86
2023/12/04 04:53:10;;;;;;;3.77;3.33;;;;;;;;;;5016923;28;20179;-86
2023/12/04 04:55:35;;;;;;;2.93;2.60;;;;;;;;;;5025318;28;20178;-86
2023/12/04 04:58:00;;;;;;;5.30;3.20;;;;;;;;;;5011771;28;20244;-86
2023/12/04 05:00:25;;;;;;;3.17;2.50;;;;;;;;;;5012951;28;20168;-87
2023/12/04 05:02:51;;;;;;;3.03;2.47;;;;;;;;;;5014917;28;20202;-87
2023/12/04 05:05:16;;;;;;;3.10;2.40;;;;;;;;;;5011461;28;20179;-86
2023/12/04 05:07:42;;;;;;;3.37;2.70;;;;;;;;;;5018691;28;20170;-86
2023/12/04 05:10:07;;;;;;;3.10;2.70;;;;;;;;;;5012331;28;20237;-87
2023/12/04 05:12:32;;;;;;;3.00;2.70;;;;;;;;;;5017816;28;20171;-87
2023/12/04 05:14:57;;;;;;;4.00;2.80;;;;;;;;;;5012933;28;20182;-87
2023/12/04 05:17:23;;;;;;;3.77;3.07;;;;;;;;;;5014932;28;20182;-87
2023/12/04 05:19:48;;;;;;;4.10;2.87;;;;;;;;;;5019190;28;20191;-86
2023/12/04 05:22:13;;;;;;;3.33;2.97;;;;;;;;;;5015404;28;20198;-87
2023/12/04 05:24:38;;;;;;;4.67;3.00;;;;;;;;;;5017103;28;20186;-87
2023/12/04 05:27:04;;;;;;;3.27;2.90;;;;;;;;;;5015442;28;20187;-86
2023/12/04 05:29:29;;;;;;;5.83;4.63;;;;;;;;;;5012252;28;20190;-87
2023/12/04 05:31:54;;;;;;;3.87;3.40;;;;;;;;;;5018997;28;20211;-86
2023/12/04 05:34:19;;;;;;;3.60;3.10;;;;;;;;;;5012892;28;20178;-86
2023/12/04 05:36:45;;;;;;;2.90;2.60;;;;;;;;;;5019535;28;20175;-86
2023/12/04 05:39:10;;;;;;;4.97;3.00;;;;;;;;;;5013886;28;20194;-86
2023/12/04 05:41:35;;;;;;;3.83;2.90;;;;;;;;;;5016962;28;20279;-86
2023/12/04 05:44:00;;;;;;;4.43;3.37;;;;;;;;;;5018134;28;20174;-86
2023/12/04 05:46:26;;;;;;;4.40;3.20;;;;;;;;;;5019810;28;20236;-86
2023/12/04 05:48:51;;;;;;;4.03;3.33;;;;;;;;;;5014209;28;20175;-86
2023/12/04 05:51:16;;;;;;;8.07;5.77;;;;;;;;;;5013505;28;20175;-87
2023/12/04 05:53:41;;;;;;;4.33;3.67;;;;;;;;;;5015503;28;20176;-86
2023/12/04 05:56:08;;;;;;;4.10;3.70;;;;;;;;;;5016641;28;20213;-86
2023/12/04 05:58:34;;;;;;;6.67;5.30;;;;;;;;;;5021722;28;20185;-86
2023/12/04 06:00:59;;;;;;;7.90;5.60;;;;;;;;;;5020301;28;20196;-86
2023/12/04 06:03:24;;;;;;;5.60;4.20;;;;;;;;;;5008831;28;20174;-86
2023/12/04 06:05:49;;;;;;;6.43;3.70;;;;;;;;;;5014159;28;20184;-79
2023/12/04 06:08:15;;;;;;;5.20;3.57;;;;;;;;;;5013777;28;20226;-79
2023/12/04 06:10:40;;;;;;;7.93;5.73;;;;;;;;;;5016089;28;20183;-79
2023/12/04 06:13:05;;;;;;;4.53;3.70;;;;;;;;;;5018529;28;20176;-79
2023/12/04 06:15:31;;;;;;;5.07;4.13;;;;;;;;;;5014732;28;20175;-79
2023/12/04 06:17:56;;;;;;;5.73;3.53;;;;;;;;;;5017567;28;20178;-79
2023/12/04 06:20:21;;;;;;;5.03;3.77;;;;;;;;;;5020436;28;20178;-79
2023/12/04 06:22:47;;;;;;;3.67;3.37;;;;;;;;;;5015701;28;20217;-79
2023/12/04 06:25:12;;;;;;;3.30;2.73;;;;;;;;;;5017993;28;20176;-79
2023/12/04 06:27:38;;;;;;;3.87;2.93;;;;;;;;;;5019411;28;20194;-79
2023/12/04 06:30:04;;;;;;;3.37;2.90;;;;;;;;;;5013216;28;20209;-79
2023/12/04 06:32:30;;;;;;;5.00;3.73;;;;;;;;;;5017207;28;20207;-79
2023/12/04 06:34:55;;;;;;;5.07;3.47;;;;;;;;;;5015987;28;20186;-79
2023/12/04 06:37:20;;;;;;;7.20;5.03;;;;;;;;;;5018710;28;20194;-79
2023/12/04 06:39:47;;;;;;;5.07;3.60;;;;;;;;;;5022219;28;20210;-79
2023/12/04 06:42:13;;;;;;;4.17;2.93;;;;;;;;;;5019190;28;20198;-79
2023/12/04 06:44:38;;;;;;;4.23;3.03;;;;;;;;;;5013725;28;20199;-79
2023/12/04 06:47:04;;;;;;;5.47;3.40;;;;;;;;;;5021772;28;20174;-79
2023/12/04 06:49:30;;;;;;;4.53;2.43;;;;;;;;;;5023027;28;20415;-79
2023/12/04 06:51:55;;;;;;;4.50;3.40;;;;;;;;;;5013149;28;20186;-79
2023/12/04 06:54:20;;;;;;;5.70;3.60;;;;;;;;;;5024600;28;20171;-79
2023/12/04 06:56:46;;;;;;;4.93;3.87;;;;;;;;;;5024090;28;20234;-79
2023/12/04 06:59:11;;;;;;;4.17;3.03;;;;;;;;;;5024335;28;20180;-79
2023/12/04 07:01:36;;;;;;;3.20;2.63;;;;;;;;;;5015403;28;20238;-79
2023/12/04 07:04:01;;;;;;;4.57;3.57;;;;;;;;;;5019271;28;20187;-79
2023/12/04 07:06:26;;;;;;;7.73;5.17;;;;;;;;;;5018031;28;20214;-79
2023/12/04 07:08:51;;;;;;;5.27;3.90;;;;;;;;;;5020136;28;20179;-79
2023/12/04 07:11:17;;;;;;;4.30;3.63;;;;;;;;;;5016921;28;20183;-79
2023/12/04 07:13:42;;;;;;;6.70;3.60;;;;;;;;;;5019756;28;20375;-79
2023/12/04 07:16:07;;;;;;;6.43;4.33;;;;;;;;;;5017060;28;20181;-79
2023/12/04 07:18:32;;;;;;;5.10;3.50;;;;;;;;;;5014052;28;20163;-79
2023/12/04 07:20:58;;;;;;;4.17;3.17;;;;;;;;;;5020682;28;20358;-79
2023/12/04 07:23:23;;;;;;;5.37;3.47;;;;;;;;;;5022438;28;20176;-79
2023/12/04 07:25:48;;;;;;;4.37;3.43;;;;;;;;;;5017653;28;20322;-79
2023/12/04 07:28:13;;;;;;;5.37;3.70;;;;;;;;;;5021105;28;20188;-79
2023/12/04 07:30:38;;;;;;;6.97;4.07;;;;;;;;;;5011830;28;20180;-79
2023/12/04 07:33:04;;;;;;;4.67;3.77;;;;;;;;;;5024738;28;20432;-79
2023/12/04 07:35:29;;;;;;;4.17;3.73;;;;;;;;;;5020647;28;20171;-79
2023/12/04 07:37:54;;;;;;;5.27;3.73;;;;;;;;;;5018897;28;20186;-79
2023/12/04 07:40:21;;;;;;;5.73;3.97;;;;;;;;;;5021360;28;20596;-79
2023/12/04 07:42:46;;;;;;;5.83;4.67;;;;;;;;;;5017778;28;20258;-79
2023/12/04 07:45:11;;;;;;;7.77;4.87;;;;;;;;;;5017293;28;20174;-79
2023/12/04 07:47:36;;;;;;;7.17;5.13;;;;;;;;;;5016493;28;20267;-79
2023/12/04 07:50:01;;;;;;;3.77;3.20;;;;;;;;;;5022710;28;20187;-79
2023/12/04 07:52:27;;;;;;;4.00;2.73;;;;;;;;;;5024632;28;20213;-79
2023/12/04 07:54:52;;;;;;;3.80;2.67;;;;;;;;;;5016038;28;20270;-79
2023/12/04 07:57:18;;;;;;;4.73;3.17;;;;;;;;;;5016313;28;20340;-79
2023/12/04 07:59:43;;;;;;;3.83;2.60;;;;;;;;;;5010895;28;20347;-79
2023/12/04 08:02:09;;;;;;;2.90;2.23;;;;;;;;;;5010240;28;20235;-77
2023/12/04 08:04:34;;;;;;;3.40;3.03;;;;;;;;;;5022427;28;20171;-77
2023/12/04 08:06:59;;;;;;;7.10;5.30;;;;;;;;;;5015024;28;20214;-77
2023/12/04 08:09:24;;;;;;;3.40;2.77;;;;;;;;;;5022329;28;20174;-77
2023/12/04 08:11:49;;;;;;;4.33;3.47;;;;;;;;;;5013644;28;20194;-77
2023/12/04 08:14:16;;;;;;;5.17;3.93;;;;;;;;;;5017073;28;20225;-77
2023/12/04 08:16:41;;;;;;;5.57;4.30;;;;;;;;;;5019608;28;20219;-77
2023/12/04 08:19:06;;;;;;;5.80;4.17;;;;;;;;;;5019563;28;20211;-77
2023/12/04 08:21:32;;;;;;;3.67;3.30;;;;;;;;;;5016646;28;20195;-77
2023/12/04 08:23:57;;;;;;;4.87;3.70;;;;;;;;;;5018356;28;20172;-77
2023/12/04 08:26:24;;;;;;;5.20;3.50;;;;;;;;;;5021823;28;20178;-76
2023/12/04 08:28:49;;;;;;;6.40;5.07;;;;;;;;;;5018405;28;20381;-76
2023/12/04 08:31:15;;;;;;;6.13;3.60;;;;;;;;;;5016841;28;20179;-76
2023/12/04 08:33:40;;;;;;;6.13;4.87;;;;;;;;;;5022617;28;20182;-76
2023/12/04 08:36:05;;;;;;;6.63;4.87;;;;;;;;;;5017783;28;20206;-76
2023/12/04 08:38:31;;;;;;;11.13;7.23;;;;;;;;;;5020794;28;20214;-76
2023/12/04 08:40:56;;;;;;;7.13;5.50;;;;;;;;;;5016596;28;20176;-76
2023/12/04 08:43:21;;;;;;;12.00;10.80;;;;;;;;;;5013778;28;20172;-76
2023/12/04 08:45:46;;;;;;;6.40;4.70;;;;;;;;;;5015169;28;20179;-76
2023/12/04 08:48:12;;;;;;;6.23;3.90;;;;;;;;;;5015344;28;20176;-76
2023/12/04 08:50:40;;;;;;;5.30;3.43;;;;;;;;;;5019812;28;20183;-76
2023/12/04 08:53:05;;;;;;;2.97;2.67;;;;;;;;;;5011338;28;20322;-76
2023/12/04 08:55:30;;;;;;;5.30;3.77;;;;;;;;;;5019049;28;20231;-76
2023/12/04 08:57:55;;;;;;;4.63;3.00;;;;;;;;;;5014315;28;20277;-76
2023/12/04 09:00:21;;;;;;;4.70;3.00;;;;;;;;;;5016363;28;20313;-76
2023/12/04 09:02:47;;;;;;;4.37;3.57;;;;;;;;;;5023024;28;20203;-76
2023/12/04 09:05:12;;;;;;;9.23;6.70;;;;;;;;;;5017284;28;20170;-76
2023/12/04 09:07:37;;;;;;;5.13;4.17;;;;;;;;;;5023113;28;20209;-76
2023/12/04 09:10:03;;;;;;;5.53;4.93;;;;;;;;;;5014478;28;20179;-76
2023/12/04 09:12:28;;;;;;;4.43;4.03;;;;;;;;;;5012345;28;20310;-76
2023/12/04 09:14:53;;;;;;;5.73;3.40;;;;;;;;;;5018289;28;20184;-76
2023/12/04 09:17:20;;;;;;;2.57;2.37;;;;;;;;;;5016265;28;20183;-76
2023/12/04 09:19:45;;;;;;;3.83;2.40;;;;;;;;;;5017975;28;20178;-76
2023/12/04 09:22:10;;;;;;;4.27;2.93;;;;;;;;;;5008830;28;20741;-76
2023/12/04 09:24:35;;;;;;;2.40;2.20;;;;;;;;;;5013598;28;20290;-76
2023/12/04 09:27:01;;;;;;;2.77;2.20;;;;;;;;;;5019133;28;20179;-76
2023/12/04 09:29:26;;;;;;;1.93;1.73;;;;;;;;;;5019849;28;20178;-76
2023/12/04 09:31:51;;;;;;;2.23;1.90;;;;;;;;;;5014552;28;20253;-76
2023/12/04 09:34:17;;;;;;;2.63;2.17;;;;;;;;;;5018930;28;20171;-76
2023/12/04 09:36:43;;;;;;;5.63;3.83;;;;;;;;;;5008821;28;20211;-76
2023/12/04 09:39:09;;;;;;;7.13;4.33;;;;;;;;;;5014029;28;20199;-76
2023/12/04 09:41:35;;;;;;;19.40;8.47;;;;;;;;;;5013504;28;20201;-76
2023/12/04 09:44:00;;;;;;;7.13;4.70;;;;;;;;;;5009861;28;20179;-76
2023/12/04 09:46:26;;;;;;;3.43;2.20;;;;;;;;;;5017170;28;20170;-76
2023/12/04 09:48:52;;;;;;;3.13;2.13;;;;;;;;;;5013548;28;20186;-76
2023/12/04 09:51:18;;;;;;;2.37;1.87;;;;;;;;;;5010831;28;20175;-76
2023/12/04 09:53:46;;;;;;;5.40;2.73;;;;;;;;;;5012948;28;20191;-76
2023/12/04 09:56:13;;;;;;;2.77;2.27;;;;;;;;;;5013871;28;20208;-76
2023/12/04 09:58:40;;;;;;;2.60;2.20;;;;;;;;;;5006920;28;20239;-76
2023/12/04 10:01:06;;;;;;;5.27;2.40;;;;;;;;;;5020145;28;20176;-76
2023/12/04 10:03:32;;;;;;;4.77;4.27;;;;;;;;;;5016320;28;20266;-76
2023/12/04 10:05:57;;;;;;;3.23;2.93;;;;;;;;;;5018836;28;20181;-76
2023/12/04 10:08:23;;;;;;;3.13;2.50;;;;;;;;;;5022156;28;20172;-76
2023/12/04 10:10:48;;;;;;;2.57;2.37;;;;;;;;;;5014970;28;20175;-76
2023/12/04 10:13:13;;;;;;;3.07;2.50;;;;;;;;;;5025917;28;20203;-75
2023/12/04 10:15:49;;;;;;;2.80;2.30;;;;;;;;;;5020865;28;20175;-75
2023/12/04 10:18:31;;;;;;;6.57;2.40;;;;;;;;;;5010497;28;20178;-76
2023/12/04 10:20:56;;;;;;;3.10;2.90;;;;;;;;;;5020576;28;20176;-76
2023/12/04 10:23:22;;;;;;;2.43;2.00;;;;;;;;;;5018242;28;20221;-76
2023/12/04 10:25:51;;;;;;;4.90;2.97;;;;;;;;;;5017431;28;20172;-76
2023/12/04 10:28:16;;;;;;;5.43;3.83;;;;;;;;;;5022958;28;20171;-76
2023/12/04 10:30:41;;;;;;;5.90;4.40;;;;;;;;;;5021565;28;20185;-76
2023/12/04 10:33:07;;;;;;;8.07;6.13;;;;;;;;;;5026931;28;20208;-76
2023/12/04 10:35:36;;;;;;;6.40;3.80;;;;;;;;;;5020755;28;20230;-76
2023/12/04 10:38:02;;;;;;;5.40;4.87;;;;;;;;;;5020105;28;20177;-76
2023/12/04 10:40:29;;;;;;;6.53;4.70;;;;;;;;;;5026504;28;20180;-76
2023/12/04 10:43:12;;;;;;;4.07;3.70;;;;;;;;;;5020846;28;20193;-76
2023/12/04 10:45:39;;;;;;;5.27;4.07;;;;;;;;;;5017923;28;20175;-76
2023/12/04 10:48:05;;;;;;;5.13;3.33;;;;;;;;;;5012309;28;20178;-77
2023/12/04 10:50:39;;;;;;;4.30;3.40;;;;;;;;;;5024177;28;20180;-77
2023/12/04 10:53:05;;;;;;;4.03;2.93;;;;;;;;;;5016430;28;20188;-76
2023/12/04 10:55:31;;;;;;;4.20;3.47;;;;;;;;;;5016504;28;20183;-76
2023/12/04 10:57:56;;;;;;;3.60;3.30;;;;;;;;;;5010453;28;20237;-76
2023/12/04 11:00:22;;;;;;;4.53;3.10;;;;;;;;;;5019882;28;20184;-77
2023/12/04 11:02:48;;;;;;;3.60;2.97;;;;;;;;;;5016449;28;20198;-77
2023/12/04 11:05:17;;;;;;;3.17;2.77;;;;;;;;;;5014740;28;20251;-77
2023/12/04 11:07:52;;;;;;;3.73;3.30;;;;;;;;;;5015594;28;20189;-77
2023/12/04 11:10:19;;;;;;;6.37;3.67;;;;;;;;;;5020840;28;20248;-76
2023/12/04 11:12:45;;;;;;;3.90;3.50;;;;;;;;;;5020962;28;20181;-77
2023/12/04 11:15:14;;;;;;;3.57;3.10;;;;;;;;;;5016118;28;20182;-77
2023/12/04 11:17:43;;;;;;;3.53;2.80;;;;;;;;;;5025707;28;20213;-77
2023/12/04 11:20:10;;;;;;;6.73;4.17;;;;;;;;;;5017837;28;20265;-76
2023/12/04 11:22:38;;;;;;;5.40;3.87;;;;;;;;;;5018236;28;20198;-77
2023/12/04 11:25:05;;;;;;;5.50;3.47;;;;;;;;;;5013687;28;20179;-76
2023/12/04 11:27:31;;;;;;;6.20;3.23;;;;;;;;;;5018792;28;20186;-77
2023/12/04 11:29:56;;;;;;;4.77;3.40;;;;;;;;;;5013613;28;20217;-77
2023/12/04 11:32:24;;;;;;;6.83;3.80;;;;;;;;;;5020903;28;20600;-77
2023/12/04 11:34:56;;;;;;;4.37;3.67;;;;;;;;;;5018474;28;20178;-77
2023/12/04 11:37:22;;;;;;;7.73;3.77;;;;;;;;;;5016046;28;20170;-77
2023/12/04 11:39:48;;;;;;;7.67;4.83;;;;;;;;;;5017367;28;20220;-77
2023/12/04 11:42:13;;;;;;;8.07;5.73;;;;;;;;;;5014995;28;20215;-77
2023/12/04 11:44:40;;;;;;;9.87;5.97;;;;;;;;;;5013161;28;20189;-77
2023/12/04 11:47:06;;;;;;;9.60;6.33;;;;;;;;;;5022296;28;20252;-77
2023/12/04 11:49:31;;;;;;;11.17;7.07;;;;;;;;;;5015206;28;20261;-77
2023/12/04 11:51:57;;;;;;;13.30;6.80;;;;;;;;;;5016929;28;20212;-77
2023/12/04 11:54:25;;;;;;;13.67;7.60;;;;;;;;;;5011786;28;20179;-77
2023/12/04 11:56:59;;;;;;;14.47;9.17;;;;;;;;;;5012437;28;20529;-77
2023/12/04 11:59:24;;;;;;;18.17;10.50;;;;;;;;;;5014100;28;20176;-77
2023/12/04 12:01:50;;;;;;;17.80;11.83;;;;;;;;;;5014107;28;20209;-77
2023/12/04 12:04:17;;;;;;;20.73;11.77;;;;;;;;;;5017487;28;20170;-77
2023/12/04 12:06:42;;;;;;;19.17;12.93;;;;;;;;;;5023899;28;20170;-77
2023/12/04 12:09:07;;;;;;;13.70;9.17;;;;;;;;;;5015053;28;20181;-77
2023/12/04 12:11:33;;;;;;;15.10;9.17;;;;;;;;;;5016444;28;20175;-77
2023/12/04 12:13:59;;;;;;;13.43;9.13;;;;;;;;;;5011422;28;20188;-77
2023/12/04 12:16:24;;;;;;;21.17;12.87;;;;;;;;;;5021387;28;20179;-77
2023/12/04 12:18:49;;;;;;;17.53;11.53;;;;;;;;;;5024850;28;20267;-77
2023/12/04 12:21:14;;;;;;;18.13;11.63;;;;;;;;;;5014483;28;20209;-77
2023/12/04 12:23:40;;;;;;;21.87;14.70;;;;;;;;;;5017916;28;20188;-77
2023/12/04 12:26:05;;;;;;;20.73;15.10;;;;;;;;;;5013960;28;20201;-77
2023/12/04 12:28:31;;;;;;;22.13;13.13;;;;;;;;;;5015960;28;20181;-77
2023/12/04 12:30:56;;;;;;;19.30;14.13;;;;;;;;;;5014830;28;20198;-77
2023/12/04 12:33:23;;;;;;;23.03;15.13;;;;;;;;;;5022514;28;20201;-77
2023/12/04 12:35:48;;;;;;;19.87;13.17;;;;;;;;;;5019511;28;20182;-77
2023/12/04 12:38:14;;;;;;;20.43;14.23;;;;;;;;;;5021004;28;20176;-76
2023/12/04 12:40:39;;;;;;;19.20;14.10;;;;;;;;;;5020727;28;20177;-77
2023/12/04 12:43:09;;;;;;;25.77;15.23;;;;;;;;;;5015383;28;20192;-77
2023/12/04 12:45:44;;;;;;;22.63;14.37;;;;;;;;;;5016202;28;20188;-77
2023/12/04 12:48:15;;;;;;;18.20;13.57;;;;;;;;;;5011446;28;20516;-76
2023/12/04 12:50:41;;;;;;;21.43;15.47;;;;;;;;;;5018568;28;20201;-78
2023/12/04 12:53:07;;;;;;;18.83;13.53;;;;;;;;;;5013727;28;20189;-78
2023/12/04 12:55:32;;;;;;;15.90;12.60;;;;;;;;;;5020797;28;20198;-78
2023/12/04 12:57:57;;;;;;;26.20;17.10;;;;;;;;;;5010855;28;20229;-78
2023/12/04 13:00:22;;;;;;;15.87;10.83;;;;;;;;;;5009040;28;20184;-78
2023/12/04 13:02:48;;;;;;;25.43;14.60;;;;;;;;;;5020429;28;20211;-78
2023/12/04 13:05:13;;;;;;;17.50;11.27;;;;;;;;;;5012418;28;20171;-78
2023/12/04 13:07:38;;;;;;;14.77;11.27;;;;;;;;;;5015173;28;20173;-78
2023/12/04 13:10:05;;;;;;;19.83;13.40;;;;;;;;;;5014829;28;20197;-78
2023/12/04 13:12:30;;;;;;;14.70;10.37;;;;;;;;;;5025283;28;20231;-78
2023/12/04 13:14:55;;;;;;;14.77;9.83;;;;;;;;;;5017472;28;20217;-77
2023/12/04 13:17:20;;;;;;;11.20;7.73;;;;;;;;;;5017090;28;20181;-81
2023/12/04 13:19:46;;;;;;;22.13;13.93;;;;;;;;;;5012762;28;20185;-80
2023/12/04 13:22:11;;;;;;;10.07;8.63;;;;;;;;;;5015061;28;20200;-80
2023/12/04 13:24:36;;;;;;;16.23;11.90;;;;;;;;;;5013965;28;20280;-81
2023/12/04 13:27:01;;;;;;;7.83;6.53;;;;;;;;;;5011062;28;20214;-80
2023/12/04 13:29:27;;;;;;;11.77;8.77;;;;;;;;;;5011397;28;20177;-81
2023/12/04 13:31:52;;;;;;;19.17;13.10;;;;;;;;;;5016461;28;20199;-80
2023/12/04 13:34:18;;;;;;;12.33;9.37;;;;;;;;;;5010954;28;20237;-80
2023/12/04 13:36:43;;;;;;;7.87;6.57;;;;;;;;;;5012131;28;20182;-80
2023/12/04 13:39:16;;;;;;;7.03;5.73;;;;;;;;;;5017393;28;20256;-80
2023/12/04 13:44:25;;;;;;;7.73;6.80;;;;;;;;;;5011921;28;20184;-79
2023/12/04 13:46:51;;;;;;;9.03;5.20;;;;;;;;;;5016113;28;20277;-80
2023/12/04 13:49:19;;;;;;;7.73;6.37;;;;;;;;;;5015083;28;20172;-80
2023/12/04 13:51:44;;;;;;;5.77;5.17;;;;;;;;;;5015338;28;20184;-80
2023/12/04 13:54:20;;;;;;;5.30;4.10;;;;;;;;;;5021614;28;20300;-80
2023/12/04 13:56:53;;;;;;;5.03;3.90;;;;;;;;;;5031927;28;20236;-80
2023/12/04 13:59:19;;;;;;;3.27;2.73;;;;;;;;;;5025158;28;20191;-80
2023/12/04 14:01:45;;;;;;;2.90;2.60;;;;;;;;;;5021214;28;20193;-80
2023/12/04 14:04:10;;;;;;;3.63;2.73;;;;;;;;;;5020734;28;20232;-80
2023/12/04 14:06:35;;;;;;;3.93;3.20;;;;;;;;;;5023993;28;20197;-81
2023/12/04 14:09:01;;;;;;;3.43;3.13;;;;;;;;;;5022261;28;20183;-80
2023/12/04 14:11:26;;;;;;;4.17;3.40;;;;;;;;;;5018667;28;20185;-81
2023/12/04 14:13:51;;;;;;;4.10;3.70;;;;;;;;;;5019542;28;20181;-80
2023/12/04 14:16:16;;;;;;;4.97;3.87;;;;;;;;;;5010481;28;20197;-81
2023/12/04 14:18:42;;;;;;;3.93;3.60;;;;;;;;;;5014655;28;20188;-79
2023/12/04 14:21:08;;;;;;;5.27;4.03;;;;;;;;;;5012662;28;20185;-80
2023/12/04 14:23:34;;;;;;;4.10;3.53;;;;;;;;;;5022260;28;20257;-80
2023/12/04 14:25:59;;;;;;;6.57;4.77;;;;;;;;;;5016137;28;20261;-80
2023/12/04 14:28:24;;;;;;;4.87;4.37;;;;;;;;;;5012752;28;20180;-81
2023/12/04 14:30:49;;;;;;;4.83;4.30;;;;;;;;;;5016796;28;20177;-81
2023/12/04 14:33:15;;;;;;;5.23;4.73;;;;;;;;;;5018430;28;20213;-81
2023/12/04 14:35:41;;;;;;;6.13;5.43;;;;;;;;;;5021680;28;20189;-80